Abbyville, KS

2:48 AM CDT on September 19, 2014 (GMT -0500)
KKSHUTCH9 | Change Station
CLOSE
Current Station
Personal Weather Station
Location: Hutchinson, KS
Elevation: 1549 ft
Nearby Weather Stations
4.0 Earthquake: Medford, Oklahoma (6 hours ago)  

Elev 1549 ft 38.08 °N, 97.92 °W | Updated 1 second ago

Clear
Clear
66.4 °F
Feels Like 66.4 °F
N
6.0
Wind Variable Wind from SSW
Gusts 6.9 mph

Today
High -- | Low -- °F
--% Chance of Precip.
Yesterday
High -- | Low -- °F
Precip. -- in
7:18 AM 7:34 PM
Waning Crescent, 21% visible
Pressure 29.91 in
Visibility 10.0 miles
Clouds Clear
Dew Point 65 °F
Humidity 95%
Rainfall 0.00 in
Snow Depth Not available.
UV 0 out of 12
Pollen 6.20 out of 12
Air Quality Not available.
Flu Activity Not available.
METAR KHUT 190652Z AUTO 16008KT 10SM CLR 19/16 A2997 RMK AO2 SLP126 T01890161 $

More Conditions Fewer Conditions

Pressure 29.91 in
Visibility 10.0 miles
Clouds Clear
Dew Point 65 °F
Humidity 95%
Rainfall 0.00 in
Snow Depth Not available.
UV 0 out of 12
Pollen 6.20 out of 12
Air Quality Not available.
Flu Activity Not available.
METAR KHUT 190652Z AUTO 16008KT 10SM CLR 19/16 A2997 RMK AO2 SLP126 T01890161 $

More Conditions Fewer Conditions

10-Day Weather Forecast

Almanac

Astronomy

Sep. 19, 2014 Rise Set
Actual Time 7:18 AM CDT 7:34 PM CDT
Civil Twilight 6:51 AM CDT 8:00 PM CDT
Nautical Twilight 6:20 AM CDT 8:31 PM CDT
Astronomical Twilight 5:49 AM CDT 9:02 PM CDT
Moon 3:07 AM CDT 5:01 PM CDT
Length of Visible Light 13h 08m
Length of Day
12h 16m
Tomorrow will be 2m 25s shorter.
Waning Crescent, 21% of the Moon is Illuminated
Today
Waning Crescent
Sep 24
New
Oct 1
First Quarter
Oct 8
Full
Oct 15
Last Quarter

Today's Extremes

State Highs State Lows

Community

WunderPhotos

Upload Photos

1,754,578 photos uploaded!

Nearby

Snow Depth

Station Depth Elevation
No new snow has been reported.

Earthquake Activity

City Distance Mag. Time & Date
Perry, Oklahoma 136 miles 3.3 12:08 AM CDT
2014-09-19
Cherokee, Oklahoma 88 miles 2.8 10:11 PM CDT
2014-09-18
Medford, Oklahoma 103 miles 4.0 8:31 PM CDT
2014-09-18
Perry, Oklahoma 130 miles 3.4 2:52 PM CDT
2014-09-18
Minimum magnitude displayed is 2.5.

Coastal Water Temperatures

Place Temperature
No Stations Reporting

Nearby Weather Stations